createdAt,value
2019-01-06T00:01:30.574Z,97347.89
2019-01-06T00:03:58.320Z,97349.47
2019-01-06T00:06:31.889Z,97356.73
2019-01-06T00:09:08.746Z,97352.08
2019-01-06T00:11:39.516Z,97344.70
2019-01-06T00:14:13.572Z,97342.88
2019-01-06T00:16:53.641Z,97353.86
2019-01-06T00:19:38.129Z,97356.48
2019-01-06T00:22:06.182Z,97349.68
2019-01-06T00:24:33.909Z,97358.31
2019-01-06T00:27:01.851Z,97313.24
2019-01-06T00:29:32.485Z,97345.28
2019-01-06T00:32:03.302Z,97352.34
2019-01-06T00:34:31.044Z,97353.66
2019-01-06T00:37:08.023Z,97353.39
2019-01-06T00:39:54.205Z,97356.48
2019-01-06T00:42:21.926Z,97361.24
2019-01-06T00:45:06.284Z,97360.77
2019-01-06T00:47:34.011Z,97361.77
2019-01-06T00:50:18.404Z,97368.09
2019-01-06T00:52:55.024Z,97366.78
2019-01-06T00:55:22.760Z,97365.43
2019-01-06T00:58:07.103Z,97368.88
2019-01-06T01:00:40.621Z,97376.72
2019-01-06T01:03:14.065Z,97368.61
2019-01-06T01:05:53.906Z,97369.36
2019-01-06T01:08:38.284Z,97369.95
2019-01-06T01:11:15.084Z,97369.95
2019-01-06T01:13:55.165Z,97369.73
2019-01-06T01:16:25.901Z,97368.16
2019-01-06T01:18:59.903Z,97375.72
2019-01-06T01:21:33.485Z,97377.03
2019-01-06T01:24:16.551Z,97388.02
2019-01-06T01:26:48.537Z,97384.88
2019-01-06T01:29:22.784Z,97392.45
2019-01-06T01:31:56.552Z,97385.66
2019-01-06T01:34:30.393Z,97391.67
2019-01-06T01:37:07.193Z,97392.73
2019-01-06T01:39:38.150Z,97396.64
2019-01-06T01:42:08.705Z,97395.59
2019-01-06T01:44:52.845Z,97397.69
2019-01-06T01:47:37.268Z,97404.48
2019-01-06T01:50:05.713Z,97415.22
2019-01-06T01:52:33.568Z,97413.12
2019-01-06T01:55:17.643Z,97426.47
2019-01-06T01:58:01.993Z,97407.64
2019-01-06T02:00:32.501Z,97433.27
2019-01-06T02:03:17.477Z,97429.34
2019-01-06T02:06:01.770Z,97434.78
2019-01-06T02:08:29.552Z,97433.23
2019-01-06T02:10:57.361Z,97437.66
2019-01-06T02:13:28.013Z,97438.70
2019-01-06T02:16:10.875Z,97436.88
2019-01-06T02:18:44.610Z,97430.61
2019-01-06T02:21:18.419Z,97432.44
2019-01-06T02:23:48.906Z,97424.06
2019-01-06T02:26:22.693Z,97422.74
2019-01-06T02:29:07.069Z,97419.08
2019-01-06T02:31:51.435Z,97417.77
2019-01-06T02:34:31.046Z,97419.08
2019-01-06T02:37:15.667Z,97427.16
2019-01-06T02:39:58.578Z,97430.02
2019-01-06T02:42:35.220Z,97426.41
2019-01-06T02:45:08.990Z,97428.46
2019-01-06T02:47:48.614Z,97438.12
2019-01-06T02:50:31.464Z,97433.13
2019-01-06T02:53:05.364Z,97437.52
2019-01-06T02:55:49.940Z,97444.52
2019-01-06T02:58:17.657Z,97445.31
2019-01-06T03:00:48.412Z,97447.64
2019-01-06T03:03:32.521Z,97443.22
2019-01-06T03:06:17.151Z,97437.47
2019-01-06T03:08:56.996Z,97448.44
2019-01-06T03:11:36.842Z,97448.44
2019-01-06T03:14:13.524Z,97428.82
2019-01-06T03:16:41.263Z,97433.79
2019-01-06T03:19:26.876Z,97439.27
2019-01-06T03:22:11.448Z,97441.10
2019-01-06T03:24:41.927Z,97436.94
2019-01-06T03:27:12.560Z,97432.20
2019-01-06T03:29:56.836Z,97436.08
2019-01-06T03:32:27.370Z,97435.53
2019-01-06T03:35:13.725Z,97430.30
2019-01-06T03:37:41.477Z,97428.73
2019-01-06T03:40:17.973Z,97441.56
2019-01-06T03:42:51.401Z,97433.95
2019-01-06T03:45:31.268Z,97431.59
2019-01-06T03:48:14.362Z,97431.84
2019-01-06T03:50:58.554Z,97426.39
2019-01-06T03:53:26.383Z,97428.12
2019-01-06T03:56:03.362Z,97434.98
2019-01-06T03:58:31.221Z,97432.20
2019-01-06T04:01:01.688Z,97431.87
2019-01-06T04:03:29.444Z,97435.27
2019-01-06T04:06:02.807Z,97435.52
2019-01-06T04:08:42.563Z,97434.22
2019-01-06T04:11:15.067Z,97425.87
2019-01-06T04:13:46.150Z,97375.98
2019-01-06T04:16:19.901Z,97430.30
2019-01-06T04:18:56.223Z,97432.73
2019-01-06T04:21:40.545Z,97427.94
2019-01-06T04:24:14.294Z,97428.39
2019-01-06T04:26:44.541Z,97425.84
2019-01-06T04:29:28.718Z,97368.55
2019-01-06T04:32:02.499Z,97425.19
2019-01-06T04:34:48.563Z,97438.55
2019-01-06T04:37:19.209Z,97435.62
2019-01-06T04:39:46.962Z,97441.42
2019-01-06T04:42:26.982Z,97448.75
2019-01-06T04:44:57.480Z,97452.41
2019-01-06T04:47:41.586Z,97450.77
2019-01-06T04:50:24.499Z,97455.80
2019-01-06T04:52:52.232Z,97458.59
2019-01-06T04:55:26.214Z,97467.23
2019-01-06T04:58:05.802Z,97466.14
2019-01-06T05:00:48.690Z,97473.47
2019-01-06T05:03:28.556Z,97460.67
2019-01-06T05:06:13.041Z,97475.53
2019-01-06T05:08:57.935Z,97474.12
2019-01-06T05:11:25.696Z,97471.00
2019-01-06T05:13:53.411Z,97471.28
2019-01-06T05:16:23.922Z,97471.53
2019-01-06T05:19:00.570Z,97467.27
2019-01-06T05:21:28.428Z,97474.12
2019-01-06T05:24:12.805Z,97472.23
2019-01-06T05:26:49.501Z,97476.91
2019-01-06T05:29:29.349Z,97474.05
2019-01-06T05:32:09.150Z,97475.35
2019-01-06T05:34:49.245Z,97471.97
2019-01-06T05:37:26.291Z,97479.00
2019-01-06T05:39:54.014Z,97478.48
2019-01-06T05:42:24.734Z,97478.48
2019-01-06T05:45:07.966Z,97491.27
2019-01-06T05:47:35.688Z,97491.83
2019-01-06T05:50:03.546Z,97492.16
2019-01-06T05:52:31.272Z,97487.69
2019-01-06T05:55:05.110Z,97487.76
2019-01-06T05:57:32.841Z,97486.13
2019-01-06T06:00:12.819Z,97498.70
2019-01-06T06:02:58.961Z,97502.63
2019-01-06T06:05:32.751Z,97513.30
2019-01-06T06:08:00.469Z,97512.53
2019-01-06T06:10:44.795Z,97513.28
2019-01-06T06:13:29.111Z,97517.16
2019-01-06T06:15:56.843Z,97516.97
2019-01-06T06:18:24.669Z,97524.80
2019-01-06T06:21:08.989Z,97532.89
2019-01-06T06:23:48.767Z,97528.63
2019-01-06T06:26:16.506Z,97532.02
2019-01-06T06:28:47.020Z,97532.57
2019-01-06T06:31:14.749Z,97540.38
2019-01-06T06:33:51.128Z,97535.23
2019-01-06T06:36:24.726Z,97533.59
2019-01-06T06:38:52.546Z,97540.34
2019-01-06T06:41:32.411Z,97536.18
2019-01-06T06:44:02.827Z,97529.65
2019-01-06T06:46:47.483Z,97540.84
2019-01-06T06:49:30.391Z,97539.29
2019-01-06T06:52:00.708Z,97541.83
2019-01-06T06:54:34.547Z,97544.16
2019-01-06T06:57:40.014Z,97541.61
2019-01-06T07:00:28.402Z,97554.34
2019-01-06T07:02:56.872Z,97557.45
2019-01-06T07:05:24.604Z,97557.20
2019-01-06T07:07:58.351Z,97561.14
2019-01-06T07:10:26.074Z,97559.24
2019-01-06T07:13:02.580Z,97571.76
2019-01-06T07:15:36.257Z,97576.27
2019-01-06T07:18:10.871Z,97580.45
2019-01-06T07:20:56.205Z,97587.45
2019-01-06T07:23:39.059Z,97587.42
2019-01-06T07:26:15.749Z,97598.89
2019-01-06T07:28:46.259Z,97595.44
2019-01-06T07:31:31.032Z,97598.25
2019-01-06T07:34:17.473Z,97610.23
2019-01-06T07:37:03.329Z,97620.19
2019-01-06T07:39:39.888Z,97623.53
2019-01-06T07:42:07.595Z,97634.52
2019-01-06T07:44:44.343Z,97627.88
2019-01-06T07:47:28.679Z,97633.88
2019-01-06T07:50:08.354Z,97628.12
2019-01-06T07:52:39.082Z,97644.30
2019-01-06T07:55:06.925Z,97643.75
2019-01-06T07:57:50.052Z,97651.06
2019-01-06T08:00:26.526Z,97649.27
2019-01-06T08:02:54.349Z,97651.36
2019-01-06T08:05:22.109Z,97652.42
2019-01-06T08:07:52.616Z,97656.06
2019-01-06T08:10:23.347Z,97660.77
2019-01-06T08:12:51.067Z,97664.69
2019-01-06T08:15:18.932Z,97659.49
2019-01-06T08:18:04.775Z,97661.80
2019-01-06T08:20:44.607Z,97656.86
2019-01-06T08:23:15.309Z,97659.49
2019-01-06T08:25:45.820Z,97646.50
2019-01-06T08:28:22.376Z,97643.13
2019-01-06T08:30:52.891Z,97654.91
2019-01-06T08:33:32.758Z,97658.58
2019-01-06T08:36:03.295Z,97670.08
2019-01-06T08:38:47.352Z,97657.52
2019-01-06T08:41:31.758Z,97663.67
2019-01-06T08:44:08.618Z,97664.23
2019-01-06T08:46:36.355Z,97667.09
2019-01-06T08:49:06.848Z,97665.25
2019-01-06T08:51:38.000Z,97672.27
2019-01-06T08:54:20.837Z,97665.41
2019-01-06T08:56:54.471Z,97667.80
2019-01-06T08:59:38.960Z,97678.52
2019-01-06T09:02:06.720Z,97669.53
2019-01-06T09:04:34.477Z,97675.76
2019-01-06T09:07:05.012Z,97682.31
2019-01-06T09:10:00.898Z,97681.73
2019-01-06T09:12:28.745Z,97685.29
2019-01-06T09:15:05.733Z,97685.29
2019-01-06T09:17:33.518Z,97693.39
2019-01-06T09:20:07.605Z,97624.48
2019-01-06T09:22:41.546Z,97693.52
2019-01-06T09:25:12.154Z,97695.39
2019-01-06T09:27:42.431Z,97701.52
2019-01-06T09:30:10.256Z,97705.47
2019-01-06T09:32:47.079Z,97708.08
2019-01-06T09:35:31.426Z,97707.84
2019-01-06T09:38:15.777Z,97716.67
2019-01-06T09:40:52.578Z,97724.59
2019-01-06T09:43:23.346Z,97718.64
2019-01-06T09:46:03.225Z,97735.61
2019-01-06T09:48:31.507Z,97730.39
2019-01-06T09:50:59.351Z,97733.55
2019-01-06T09:53:30.151Z,97729.02
2019-01-06T09:56:14.240Z,97724.13
2019-01-06T09:58:51.029Z,97733.00
2019-01-06T10:01:35.653Z,97714.80
2019-01-06T10:04:03.399Z,97723.40
2019-01-06T10:06:34.152Z,97723.56
2019-01-06T10:09:04.867Z,97723.38
2019-01-06T10:11:49.382Z,97719.14
2019-01-06T10:14:32.278Z,97717.36
2019-01-06T10:17:16.937Z,97723.89
2019-01-06T10:19:56.740Z,97720.98
2019-01-06T10:22:33.509Z,97721.47
2019-01-06T10:25:01.348Z,97729.31
2019-01-06T10:27:29.078Z,97728.30
2019-01-06T10:30:13.347Z,97726.59
2019-01-06T10:32:44.021Z,97729.01
2019-01-06T10:35:20.866Z,97743.23
2019-01-06T10:38:05.627Z,97728.82
2019-01-06T10:40:42.315Z,97725.80
2019-01-06T10:43:16.679Z,97724.63
2019-01-06T10:45:56.544Z,97724.38
2019-01-06T10:48:24.282Z,97728.66
2019-01-06T10:50:54.668Z,97725.36
2019-01-06T10:53:38.981Z,97725.47
2019-01-06T10:56:09.461Z,97715.10
2019-01-06T10:58:39.971Z,97712.81
2019-01-06T11:01:24.379Z,97709.05
2019-01-06T11:03:58.161Z,97707.20
2019-01-06T11:06:42.520Z,97715.60
2019-01-06T11:09:10.236Z,97705.99
2019-01-06T11:11:49.812Z,97710.06
2019-01-06T11:14:23.527Z,97699.41
2019-01-06T11:17:08.002Z,97705.03
2019-01-06T11:19:52.469Z,97713.83
2019-01-06T11:22:23.156Z,97705.88
2019-01-06T11:25:07.735Z,97708.28
2019-01-06T11:27:47.371Z,97712.22
2019-01-06T11:30:31.458Z,97708.13
2019-01-06T11:33:15.806Z,97711.64
2019-01-06T11:35:46.320Z,97718.00
2019-01-06T11:38:23.170Z,97700.49
2019-01-06T11:41:07.977Z,97707.44
2019-01-06T11:43:35.426Z,97712.70
2019-01-06T11:46:06.105Z,97714.91
2019-01-06T11:48:50.695Z,97712.25
2019-01-06T11:51:24.243Z,97710.70
2019-01-06T11:54:04.305Z,97707.69
2019-01-06T11:56:40.603Z,97706.05
2019-01-06T11:59:17.113Z,97707.81
2019-01-06T12:02:01.503Z,97708.06
2019-01-06T12:04:45.828Z,97708.61
2019-01-06T12:07:13.570Z,97709.06
2019-01-06T12:09:50.637Z,97710.88
2019-01-06T12:12:24.389Z,97708.13
2019-01-06T12:15:08.985Z,97709.91
2019-01-06T12:17:39.567Z,97710.58
2019-01-06T12:20:07.419Z,97706.43
2019-01-06T12:22:43.766Z,97709.13
2019-01-06T12:25:26.908Z,97707.84
2019-01-06T12:28:12.765Z,97709.69
2019-01-06T12:30:58.666Z,97712.03
2019-01-06T12:33:29.322Z,97714.59
2019-01-06T12:36:13.575Z,97713.63
2019-01-06T12:38:47.406Z,97727.23
2019-01-06T12:41:18.064Z,97719.10
2019-01-06T12:44:02.650Z,97722.21
2019-01-06T12:46:48.517Z,97724.68
2019-01-06T12:49:34.250Z,97724.08
2019-01-06T12:52:18.778Z,97724.33
2019-01-06T12:55:01.940Z,97711.22
2019-01-06T12:57:35.521Z,97729.61
2019-01-06T13:00:20.100Z,97719.80
2019-01-06T13:03:05.947Z,97727.92
2019-01-06T13:05:33.667Z,97728.84
2019-01-06T13:08:19.846Z,97733.53
2019-01-06T13:10:50.584Z,97732.99
2019-01-06T13:13:38.607Z,97737.70
2019-01-06T13:16:09.165Z,97737.58
2019-01-06T13:18:49.278Z,97740.72
2019-01-06T13:21:17.120Z,97741.45
2019-01-06T13:23:47.665Z,97743.22
2019-01-06T13:26:15.413Z,97749.43
2019-01-06T13:28:43.177Z,97754.14
2019-01-06T13:31:16.611Z,97758.59
2019-01-06T13:33:56.707Z,97760.42
2019-01-06T13:36:41.104Z,97764.30
2019-01-06T13:39:12.121Z,97776.28
2019-01-06T13:41:55.148Z,97763.85
2019-01-06T13:44:22.899Z,97772.88
2019-01-06T13:47:07.718Z,97770.05
2019-01-06T13:49:41.255Z,97773.38
2019-01-06T13:52:25.873Z,97769.73
2019-01-06T13:54:59.627Z,97773.13
2019-01-06T13:57:39.402Z,97772.56
2019-01-06T14:00:25.059Z,97774.64
2019-01-06T14:02:55.550Z,97778.09
2019-01-06T14:05:23.300Z,97780.11
2019-01-06T14:07:59.759Z,97777.77
2019-01-06T14:10:27.526Z,97782.08
2019-01-06T14:12:58.514Z,97775.65
2019-01-06T14:15:42.877Z,97782.33
2019-01-06T14:18:19.450Z,97786.52
2019-01-06T14:20:47.235Z,97780.20
2019-01-06T14:23:30.361Z,97793.48
2019-01-06T14:26:00.751Z,97792.91
2019-01-06T14:28:45.056Z,97795.14
2019-01-06T14:31:30.904Z,97800.63
2019-01-06T14:33:58.665Z,97798.69
2019-01-06T14:36:44.779Z,97808.52
2019-01-06T14:39:12.562Z,97807.56
2019-01-06T14:41:59.494Z,97807.98
2019-01-06T14:44:42.626Z,97813.00
2019-01-06T14:47:10.501Z,97816.77
2019-01-06T14:49:41.267Z,97812.37
2019-01-06T14:52:18.069Z,97817.50
2019-01-06T14:54:48.860Z,97809.97
2019-01-06T14:57:28.537Z,97825.55
2019-01-06T14:59:56.282Z,97814.02
2019-01-06T15:02:24.146Z,97814.10
2019-01-06T15:05:01.055Z,97809.40
2019-01-06T15:07:34.847Z,97813.22
2019-01-06T15:10:17.958Z,97819.27
2019-01-06T15:12:54.989Z,97819.32
2019-01-06T15:15:31.900Z,97820.33
2019-01-06T15:18:02.564Z,97818.38
2019-01-06T15:20:46.945Z,97817.56
2019-01-06T15:23:26.629Z,97822.91
2019-01-06T15:26:11.017Z,97817.50
2019-01-06T15:28:41.529Z,97819.63
2019-01-06T15:31:18.417Z,97819.53
2019-01-06T15:34:02.844Z,97824.03
2019-01-06T15:36:47.413Z,97823.52
2019-01-06T15:39:15.173Z,97824.58
2019-01-06T15:41:54.959Z,97825.31
2019-01-06T15:44:34.727Z,97829.84
2019-01-06T15:47:05.505Z,97824.58
2019-01-06T15:49:33.244Z,97816.75
2019-01-06T15:52:17.669Z,97818.54
2019-01-06T15:55:02.209Z,97818.30
2019-01-06T15:57:32.742Z,97822.56
2019-01-06T16:00:03.253Z,97819.08
2019-01-06T16:02:40.091Z,97824.64
2019-01-06T16:05:14.938Z,97826.63
2019-01-06T16:07:55.265Z,97825.58
2019-01-06T16:10:32.189Z,97826.09
2019-01-06T16:13:16.975Z,97830.38
2019-01-06T16:15:44.704Z,97828.19
2019-01-06T16:18:21.114Z,97830.08
2019-01-06T16:20:48.828Z,97834.66
2019-01-06T16:23:19.283Z,97829.16
2019-01-06T16:25:50.093Z,97831.59
2019-01-06T16:28:36.733Z,97830.05
2019-01-06T16:31:16.794Z,97828.11
2019-01-06T16:33:47.388Z,97837.25
2019-01-06T16:36:17.625Z,97827.80
2019-01-06T16:39:02.523Z,97820.60
2019-01-06T16:41:36.065Z,97829.95
2019-01-06T16:44:03.807Z,97820.60
2019-01-06T16:46:43.812Z,97823.86
2019-01-06T16:49:17.362Z,97823.18
2019-01-06T16:51:48.380Z,97824.61
2019-01-06T16:54:28.203Z,97835.91
2019-01-06T16:56:55.967Z,97834.45
2019-01-06T16:59:40.670Z,97839.09
2019-01-06T17:02:17.672Z,97835.06
2019-01-06T17:04:48.616Z,97837.00
2019-01-06T17:07:19.371Z,97836.16
2019-01-06T17:09:55.913Z,97835.00
2019-01-06T17:12:40.373Z,97827.25
2019-01-06T17:15:11.385Z,97840.16
2019-01-06T17:17:42.137Z,97832.17
2019-01-06T17:20:09.870Z,97835.52
2019-01-06T17:22:37.628Z,97839.81
2019-01-06T17:25:05.580Z,97834.25
2019-01-06T17:27:49.895Z,97834.88
2019-01-06T17:30:29.766Z,97839.41
2019-01-06T17:32:57.489Z,97841.74
2019-01-06T17:35:42.156Z,97842.22
2019-01-06T17:38:15.826Z,97838.83
2019-01-06T17:40:43.633Z,97841.05
2019-01-06T17:43:14.445Z,97832.12
2019-01-06T17:45:48.294Z,97839.41
2019-01-06T17:48:16.047Z,97839.16
2019-01-06T17:50:43.772Z,97839.99
2019-01-06T17:53:11.498Z,97841.67
2019-01-06T17:55:55.947Z,97846.31
2019-01-06T17:58:41.959Z,97844.36
2019-01-06T18:01:26.578Z,97846.63
2019-01-06T18:04:11.230Z,97845.45
2019-01-06T18:06:39.006Z,97838.83
2019-01-06T18:09:07.258Z,97841.98
2019-01-06T18:11:34.999Z,97838.62
2019-01-06T18:14:19.834Z,97838.31
2019-01-06T18:16:57.734Z,97837.55
2019-01-06T18:19:28.146Z,97833.46
2019-01-06T18:22:12.475Z,97832.91
2019-01-06T18:24:56.830Z,97836.66
2019-01-06T18:27:30.352Z,97839.56
2019-01-06T18:30:13.237Z,97841.86
2019-01-06T18:32:40.951Z,97837.99
2019-01-06T18:35:11.713Z,97839.95
2019-01-06T18:37:57.577Z,97833.22
2019-01-06T18:40:37.589Z,97841.50
2019-01-06T18:43:22.194Z,97842.05
2019-01-06T18:46:05.083Z,97838.89
2019-01-06T18:48:32.833Z,97840.27
2019-01-06T18:51:17.412Z,97845.06
2019-01-06T18:54:03.312Z,97848.09
2019-01-06T18:56:36.927Z,97845.28
2019-01-06T18:59:10.869Z,97844.05
2019-01-06T19:01:38.738Z,97837.11
2019-01-06T19:04:09.499Z,97840.50
2019-01-06T19:06:53.957Z,97848.85
2019-01-06T19:09:21.706Z,97844.90
2019-01-06T19:11:52.561Z,97843.84
2019-01-06T19:14:20.297Z,97846.80
2019-01-06T19:17:06.362Z,97851.39
2019-01-06T19:19:49.209Z,97843.08
2019-01-06T19:22:33.481Z,97849.88
2019-01-06T19:25:17.812Z,97852.26
2019-01-06T19:27:48.423Z,97859.94
2019-01-06T19:30:22.377Z,97856.23
2019-01-06T19:33:02.425Z,97864.80
2019-01-06T19:35:30.183Z,97865.75
2019-01-06T19:37:57.953Z,97867.78
2019-01-06T19:40:42.516Z,97865.62
2019-01-06T19:43:19.094Z,97862.59
2019-01-06T19:46:04.714Z,97859.19
2019-01-06T19:48:32.495Z,97868.09
2019-01-06T19:51:09.065Z,97870.73
2019-01-06T19:53:54.908Z,97874.10
2019-01-06T19:56:37.992Z,97870.97
2019-01-06T19:59:22.720Z,97875.99
2019-01-06T20:01:50.478Z,97879.33
2019-01-06T20:04:18.226Z,97878.57
2019-01-06T20:07:02.703Z,97884.89
2019-01-06T20:09:47.092Z,97879.09
2019-01-06T20:12:15.181Z,97880.15
2019-01-06T20:14:59.669Z,97882.38
2019-01-06T20:17:42.470Z,97872.28
2019-01-06T20:20:10.326Z,97875.28
2019-01-06T20:22:54.781Z,97879.66
2019-01-06T20:25:39.647Z,97881.42
2019-01-06T20:28:19.464Z,97888.88
2019-01-06T20:30:59.165Z,97878.19
2019-01-06T20:33:43.898Z,97886.44
2019-01-06T20:36:11.638Z,97892.14
2019-01-06T20:38:54.682Z,97891.91
2019-01-06T20:41:25.080Z,97888.95
2019-01-06T20:43:55.857Z,97887.91
2019-01-06T20:46:32.737Z,97887.09
2019-01-06T20:49:06.680Z,97883.17
2019-01-06T20:51:43.827Z,97891.01
2019-01-06T20:54:28.625Z,97896.98
2019-01-06T20:57:13.001Z,97890.02
2019-01-06T20:59:43.592Z,97889.26
2019-01-06T21:02:27.884Z,97896.98
2019-01-06T21:05:07.523Z,97893.02
2019-01-06T21:07:35.362Z,97880.99
2019-01-06T21:10:09.366Z,97892.34
2019-01-06T21:12:46.172Z,97892.86
2019-01-06T21:15:26.284Z,97900.15
2019-01-06T21:18:06.067Z,97903.83
2019-01-06T21:20:45.764Z,97895.65
2019-01-06T21:23:25.858Z,97903.80
2019-01-06T21:25:53.583Z,97901.42
2019-01-06T21:28:21.448Z,97899.88
2019-01-06T21:31:06.074Z,97905.27
2019-01-06T21:33:39.640Z,97919.36
2019-01-06T21:36:24.217Z,97916.23
2019-01-06T21:39:08.558Z,97904.62
2019-01-06T21:41:36.306Z,97910.08
2019-01-06T21:44:20.623Z,97912.41
2019-01-06T21:47:05.210Z,97913.95
2019-01-06T21:49:51.129Z,97908.98
2019-01-06T21:52:18.873Z,97913.33
2019-01-06T21:55:03.273Z,97917.36
2019-01-06T21:57:36.886Z,97896.49
2019-01-06T22:00:10.734Z,97901.54
2019-01-06T22:02:44.675Z,97901.54
2019-01-06T22:05:12.428Z,97885.10
2019-01-06T22:07:42.954Z,97896.50
2019-01-06T22:10:13.793Z,97896.68
2019-01-06T22:12:41.621Z,97903.03
2019-01-06T22:15:24.158Z,97904.48
2019-01-06T22:18:08.591Z,97904.95
2019-01-06T22:20:52.972Z,97897.89
2019-01-06T22:23:35.770Z,97901.93
2019-01-06T22:26:09.476Z,97904.51
2019-01-06T22:28:43.000Z,97897.42
2019-01-06T22:31:29.005Z,97896.43
2019-01-06T22:34:08.616Z,97898.44
2019-01-06T22:36:48.721Z,97894.16
2019-01-06T22:39:19.491Z,97886.50
2019-01-06T22:42:04.148Z,97877.95
2019-01-06T22:44:37.842Z,97892.36
2019-01-06T22:47:23.930Z,97888.53
2019-01-06T22:50:09.892Z,97890.70
2019-01-06T22:52:54.222Z,97883.25
2019-01-06T22:55:21.966Z,97883.95
2019-01-06T22:57:52.766Z,97888.20
2019-01-06T23:00:38.449Z,97889.37
2019-01-06T23:03:23.081Z,97890.20
2019-01-06T23:05:53.586Z,97880.51
2019-01-06T23:08:21.316Z,97889.41
2019-01-06T23:10:49.175Z,97890.41
2019-01-06T23:13:16.929Z,97890.14
2019-01-06T23:15:50.756Z,97889.34
2019-01-06T23:18:18.494Z,97890.92
2019-01-06T23:20:49.357Z,97891.99
2019-01-06T23:23:32.086Z,97881.02
2019-01-06T23:25:59.944Z,97886.49
2019-01-06T23:28:39.780Z,97882.06
2019-01-06T23:31:10.513Z,97884.83
2019-01-06T23:33:53.146Z,97888.92
2019-01-06T23:36:20.908Z,97888.92
2019-01-06T23:39:00.287Z,97884.70
2019-01-06T23:41:28.051Z,97891.73
2019-01-06T23:44:12.422Z,97886.55
2019-01-06T23:46:55.050Z,97886.55
2019-01-06T23:49:39.186Z,97881.74
2019-01-06T23:52:21.832Z,97887.48
2019-01-06T23:54:58.400Z,97887.70
2019-01-06T23:57:41.050Z,97889.84
